Doerun, GA

9:17 PM EDT on September 19, 2014 (GMT -0400)
City of Moultrie Service Center | Change Station
CLOSE
Current Station
Personal Weather Station
Location: Moultrie, GA
Elevation: 299 ft
Nearby Weather Stations

Elev 299 ft 31.19 °N, 83.79 °W | Updated 7 minutes ago

Partly Cloudy
Partly Cloudy
73.4 °F
Feels Like 72 °F
N
0.0
Wind Variable Wind from East
Gusts 3.0 mph

Today
High -- | Low -- °F
--% Chance of Precip.
Yesterday
High -- | Low -- °F
Precip. -- in
7:22 AM 7:36 PM
Waning Crescent, 15% visible
Pressure 30.04 in
Visibility 10.0 miles
Clouds Scattered Clouds 4400 ft
Scattered Clouds 5500 ft
Mostly Cloudy 6500 ft
Heat Index 72 °F
Dew Point 69 °F
Humidity 87%
Rainfall 0.00 in
Snow Depth Not available.
UV 0 out of 12
Pollen 7.80 out of 12
Air Quality Not available.
Flu Activity Not available.
METAR KMGR 200055Z AUTO 00000KT 10SM SCT044 SCT055 BKN065 23/21 A3004 RMK AO2

More Conditions Fewer Conditions

Pressure 30.04 in
Visibility 10.0 miles
Clouds Scattered Clouds 4400 ft
Scattered Clouds 5500 ft
Mostly Cloudy 6500 ft
Heat Index 72 °F
Dew Point 69 °F
Humidity 87%
Rainfall 0.00 in
Snow Depth Not available.
UV 0 out of 12
Pollen 7.80 out of 12
Air Quality Not available.
Flu Activity Not available.
METAR KMGR 200055Z AUTO 00000KT 10SM SCT044 SCT055 BKN065 23/21 A3004 RMK AO2

More Conditions Fewer Conditions

10-Day Weather Forecast

Almanac

Astronomy

Sep. 19, 2014 Rise Set
Actual Time 7:22 AM EDT 7:36 PM EDT
Civil Twilight 6:57 AM EDT 8:00 PM EDT
Nautical Twilight 6:29 AM EDT 8:28 PM EDT
Astronomical Twilight 6:00 AM EDT 8:57 PM EDT
Moon 3:19 AM EDT (9/19) 4:53 PM EDT (9/19)
Length of Visible Light 13h 02m
Length of Day
12h 14m
Tomorrow will be 1m 53s shorter.
Waning Crescent, 15% of the Moon is Illuminated
Today
Waning Crescent
Sep 24
New
Oct 1
First Quarter
Oct 8
Full
Oct 15
Last Quarter

Today's Extremes

State Highs State Lows

Community

WunderPhotos

Upload Photos

1,754,755 photos uploaded!

WunderBlogs® & News

Nearby

Snow Depth

Station Depth Elevation
No new snow has been reported.

Earthquake Activity

City Distance Mag. Time & Date
No recent earthquake activity has been reported nearby.
Minimum magnitude displayed is 2.5.

Coastal Water Temperatures

Place Temperature
No Stations Reporting

Nearby Weather Stations